Time;durP1;ratioP1;P1;durP2;ratioP2;P2;SDS_P1;SDS_P2;PMS_P1;PMS_P2;Temp;Humidity;BMP_temperature;BMP_pressure;BME280_temperature;BME280_humidity;BME280_pressure;Samples;Min_cycle;Max_cycle;Signal;HPM_P1;HPM_P2
2021/04/05 00:02:00;;;;;;;25.02;10.15;;;;;;;3.43;86.33;99571.28;5103590;28;20027;-83
2021/04/05 00:04:26;;;;;;;21.23;9.05;;;;;;;3.41;86.23;99566.16;5083761;28;20028;-83
2021/04/05 00:06:52;;;;;;;18.90;9.48;;;;;;;3.50;85.61;99561.84;5099465;28;20396;-83
2021/04/05 00:09:17;;;;;;;20.58;9.85;;;;;;;3.51;85.88;99541.34;5097411;28;20032;-83
2021/04/05 00:11:42;;;;;;;19.95;9.82;;;;;;;3.49;86.09;99552.47;5081858;28;20016;-83
2021/04/05 00:14:07;;;;;;;19.23;10.85;;;;;;;3.57;85.49;99528.47;5081387;28;20030;-83
2021/04/05 00:16:33;;;;;;;22.88;10.73;;;;;;;3.51;85.77;99533.66;5100573;28;20023;-83
2021/04/05 00:18:58;;;;;;;22.33;11.27;;;;;;;3.49;86.17;99524.25;5081739;28;20024;-83
2021/04/05 00:21:27;;;;;;;20.02;10.55;;;;;;;3.56;85.93;99518.22;5081599;28;20115;-83
2021/04/05 00:23:52;;;;;;;23.10;11.05;;;;;;;3.59;85.46;99521.59;5081720;28;20475;-83
2021/04/05 00:26:19;;;;;;;20.38;10.95;;;;;;;3.57;85.62;99496.84;5099363;28;20078;-83
2021/04/05 00:28:45;;;;;;;30.77;12.43;;;;;;;3.58;85.39;99496.00;5081714;28;20028;-83
2021/04/05 00:31:11;;;;;;;23.92;12.30;;;;;;;3.58;85.29;99484.03;5081341;28;20046;-83
2021/04/05 00:33:36;;;;;;;21.73;11.32;;;;;;;3.55;85.57;99467.81;5099601;28;20085;-83
2021/04/05 00:36:02;;;;;;;25.90;13.38;;;;;;;3.50;85.76;99456.75;5080777;28;20020;-84
2021/04/05 00:38:27;;;;;;;22.70;12.48;;;;;;;3.47;85.84;99447.34;5080519;28;20020;-83
2021/04/05 00:41:01;;;;;;;26.83;11.52;;;;;;;3.48;85.58;99441.38;5081140;28;20035;-83
2021/04/05 00:43:27;;;;;;;22.98;12.48;;;;;;;3.43;86.05;99443.13;5099199;28;20061;-83
2021/04/05 00:45:53;;;;;;;23.92;12.90;;;;;;;3.46;85.88;99409.78;5080816;28;20028;-83
2021/04/05 00:48:19;;;;;;;25.48;14.07;;;;;;;3.45;86.05;99415.78;5081088;28;20058;-83
2021/04/05 00:50:58;;;;;;;24.13;12.88;;;;;;;3.39;86.61;99398.72;5080881;28;20020;-83
2021/04/05 00:53:26;;;;;;;25.60;13.05;;;;;;;3.43;85.97;99397.84;5099464;28;20027;-83
2021/04/05 00:55:52;;;;;;;26.30;13.50;;;;;;;3.49;85.63;99402.06;5080358;28;20020;-83
2021/04/05 00:58:18;;;;;;;23.42;13.65;;;;;;;3.52;85.70;99396.06;5080510;28;20012;-83
2021/04/05 01:00:51;;;;;;;23.38;12.93;;;;;;;3.55;85.37;99385.78;5098851;28;20081;-83
2021/04/05 01:03:19;;;;;;;20.88;11.60;;;;;;;3.58;84.91;99373.78;5079728;28;20020;-83
2021/04/05 01:05:46;;;;;;;27.73;13.35;;;;;;;3.61;85.01;99367.78;5080532;28;20026;-83
2021/04/05 01:08:16;;;;;;;21.88;13.70;;;;;;;3.58;85.38;99370.38;5080469;28;20453;-83
2021/04/05 01:10:41;;;;;;;24.98;13.50;;;;;;;3.61;84.77;99357.53;5098145;28;20071;-83
2021/04/05 01:13:07;;;;;;;22.52;13.38;;;;;;;3.57;85.49;99346.47;5081684;28;20023;-83
2021/04/05 01:15:32;;;;;;;25.13;13.43;;;;;;;3.60;85.13;99343.00;5079843;28;20043;-83
2021/04/05 01:17:57;;;;;;;29.80;13.98;;;;;;;3.61;84.86;99339.59;5080205;28;20062;-83
2021/04/05 01:20:23;;;;;;;26.35;13.82;;;;;;;3.64;85.28;99331.88;5080551;28;20105;-83
2021/04/05 01:26:10;;;;;;;23.90;13.25;;;;;;;3.71;85.03;99315.53;5098616;28;20088;-83
2021/04/05 01:28:36;;;;;;;22.48;12.50;;;;;;;3.74;84.69;99312.09;5079761;28;20028;-83
2021/04/05 01:31:02;;;;;;;26.02;12.38;;;;;;;3.79;84.56;99312.91;5098037;28;20032;-82
2021/04/05 01:33:31;;;;;;;23.13;11.93;;;;;;;3.79;84.43;99316.31;5079470;28;20024;-83
2021/04/05 01:36:01;;;;;;;19.67;12.73;;;;;;;3.82;84.26;99323.13;5079415;28;20035;-83
2021/04/05 01:38:38;;;;;;;23.17;12.57;;;;;;;3.83;84.75;99309.44;5097615;28;20453;-83
2021/04/05 01:41:09;;;;;;;26.13;12.90;;;;;;;3.83;84.56;99300.03;5080181;28;20027;-83
2021/04/05 01:43:35;;;;;;;21.25;11.93;;;;;;;3.85;84.52;99298.31;5098072;28;20495;-83
2021/04/05 01:46:02;;;;;;;29.67;12.57;;;;;;;3.88;84.50;99285.44;5097709;28;20028;-83
2021/04/05 01:48:30;;;;;;;23.38;13.45;;;;;;;3.86;85.01;99263.25;5079605;28;20395;-83
2021/04/05 01:51:04;;;;;;;23.02;11.75;;;;;;;3.91;84.32;99261.47;5079716;28;20506;-83
2021/04/05 01:53:30;;;;;;;23.50;11.95;;;;;;;3.91;84.97;99254.63;5098082;28;20114;-83
2021/04/05 01:56:06;;;;;;;24.55;12.45;;;;;;;3.95;84.69;99246.91;5097509;28;20111;-83
2021/04/05 01:58:36;;;;;;;19.67;11.40;;;;;;;3.97;84.86;99220.34;5098005;28;20020;-83
2021/04/05 02:01:02;;;;;;;20.48;11.57;;;;;;;4.02;84.81;99239.09;5079461;28;20016;-83
2021/04/05 02:03:28;;;;;;;22.30;11.52;;;;;;;4.03;84.95;99224.53;5078846;28;20430;-83
2021/04/05 02:06:02;;;;;;;21.40;11.98;;;;;;;4.05;85.03;99200.56;5079833;28;20028;-83
2021/04/05 02:08:29;;;;;;;23.35;11.70;;;;;;;4.09;84.78;99206.50;5079809;28;20078;-83
2021/04/05 02:10:57;;;;;;;22.50;10.98;;;;;;;4.14;85.09;99204.72;5079060;28;20024;-83
2021/04/05 02:13:24;;;;;;;23.60;11.48;;;;;;;4.12;85.11;99197.03;5079751;28;20043;-83
2021/04/05 02:15:53;;;;;;;25.70;10.88;;;;;;;4.16;85.13;99185.03;5078933;28;20114;-83
2021/04/05 02:18:21;;;;;;;21.55;10.57;;;;;;;4.17;85.54;99180.75;5079831;28;20012;-83
2021/04/05 02:20:48;;;;;;;20.70;10.77;;;;;;;4.19;85.50;99172.16;5078769;28;20024;-83
2021/04/05 02:23:14;;;;;;;24.55;11.48;;;;;;;4.17;85.53;99171.31;5078765;28;20035;-83
2021/04/05 02:26:05;;;;;;;24.48;10.35;;;;;;;4.20;85.59;99157.63;5098039;28;20023;-83
2021/04/05 02:28:27;;;;;;;20.20;10.50;;;;;;;4.19;86.13;99148.19;5097360;28;20059;-83
2021/04/05 02:30:52;;;;;;;23.60;11.00;;;;;;;4.23;85.89;99145.56;5077898;28;20016;-83
2021/04/05 02:33:18;;;;;;;20.10;10.57;;;;;;;4.23;86.25;99130.19;5096466;28;20545;-83
2021/04/05 02:35:43;;;;;;;22.95;9.70;;;;;;;4.25;86.01;99123.31;5078514;28;20062;-83
2021/04/05 02:38:09;;;;;;;22.65;9.80;;;;;;;4.25;86.12;99118.19;5078228;28;20031;-83
2021/04/05 02:40:35;;;;;;;24.33;10.98;;;;;;;4.27;86.27;99107.88;5078666;28;20016;-83
2021/04/05 02:43:01;;;;;;;26.65;9.30;;;;;;;4.25;86.43;99105.34;5097136;28;20068;-83
2021/04/05 02:45:27;;;;;;;21.05;9.32;;;;;;;4.26;86.49;99077.97;5096686;28;20036;-83
2021/04/05 02:47:55;;;;;;;29.33;10.80;;;;;;;4.29;86.50;99073.63;5078407;28;20113;-82
2021/04/05 02:50:23;;;;;;;24.27;10.43;;;;;;;4.28;86.98;99071.94;5095512;28;20016;-83
2021/04/05 02:52:49;;;;;;;23.70;11.23;;;;;;;4.28;87.23;99081.34;5079119;28;20024;-83
2021/04/05 02:55:15;;;;;;;25.67;10.95;;;;;;;4.23;88.34;99063.47;5078794;28;20391;-83
2021/04/05 02:57:42;;;;;;;22.70;9.73;;;;;;;4.24;88.52;99059.16;5078692;28;20024;-83
2021/04/05 03:00:11;;;;;;;31.88;11.70;;;;;;;4.22;88.87;99056.66;5078877;28;20091;-83
2021/04/05 03:02:37;;;;;;;22.58;9.63;;;;;;;4.25;88.63;99041.19;5097078;28;20035;-83
2021/04/05 03:05:05;;;;;;;28.20;11.10;;;;;;;4.26;88.89;99050.56;5079213;28;20045;-83
2021/04/05 03:07:30;;;;;;;23.08;10.07;;;;;;;4.25;88.56;99040.31;5078666;28;20020;-83
2021/04/05 03:09:56;;;;;;;23.58;9.85;;;;;;;4.26;89.19;99024.06;5078765;28;20035;-83
2021/04/05 03:12:22;;;;;;;20.63;9.70;;;;;;;4.27;89.24;99036.03;5096468;28;20373;-83
2021/04/05 03:14:47;;;;;;;26.40;9.63;;;;;;;4.26;90.00;99027.47;5098179;28;20487;-82
2021/04/05 03:17:14;;;;;;;22.67;10.63;;;;;;;4.23;90.73;99011.28;5082494;28;20031;-83
2021/04/05 03:19:40;;;;;;;25.23;9.77;;;;;;;4.23;91.17;99007.00;5100347;28;20020;-83
2021/04/05 03:22:09;;;;;;;22.65;11.27;;;;;;;4.20;91.85;99003.66;5082016;28;20024;-83
2021/04/05 03:24:36;;;;;;;22.17;10.38;;;;;;;4.08;94.17;98990.16;5100838;28;20095;-83
2021/04/05 03:27:01;;;;;;;27.55;11.38;;;;;;;4.04;94.96;99001.34;5081568;28;20403;-83
2021/04/05 03:29:31;;;;;;;28.40;11.57;;;;;;;4.00;96.75;98983.44;5101545;28;20031;-83
2021/04/05 03:31:59;;;;;;;31.00;11.77;;;;;;;3.95;98.12;98969.88;5082790;28;20453;-82
2021/04/05 03:34:27;;;;;;;25.52;10.98;;;;;;;3.92;99.17;98981.03;5082842;28;20063;-83
2021/04/05 03:36:54;;;;;;;25.13;11.55;;;;;;;3.87;100.00;98973.41;5083064;28;20024;-83
2021/04/05 03:39:20;;;;;;;25.15;11.73;;;;;;;3.83;100.00;98956.38;5100584;28;20020;-83
2021/04/05 03:41:58;;;;;;;29.08;11.40;;;;;;;3.79;100.00;98959.03;5101293;28;20035;-83
2021/04/05 03:44:53;;;;;;;25.63;11.10;;;;;;;3.79;100.00;98949.63;5082161;28;20504;-83
2021/04/05 03:47:44;;;;;;;33.35;11.68;;;;;;;3.79;100.00;98946.22;5080297;28;20028;-82
2021/04/05 03:50:18;;;;;;;27.42;11.70;;;;;;;3.78;100.00;98947.06;5099129;28;20035;-82
2021/04/05 03:53:28;;;;;;;25.63;12.38;;;;;;;3.79;100.00;98943.66;5080437;28;20024;-82
2021/04/05 03:56:02;;;;;;;31.60;12.10;;;;;;;3.77;100.00;98932.56;5079997;28;20119;-82
2021/04/05 03:58:31;;;;;;;30.38;11.45;;;;;;;3.77;100.00;98927.44;5079414;28;20027;-82
2021/04/05 04:01:02;;;;;;;29.27;11.00;;;;;;;3.78;100.00;98917.13;5079403;28;20040;-81
2021/04/05 04:03:38;;;;;;;28.77;12.70;;;;;;;3.78;100.00;98917.13;5097548;28;20073;-81
2021/04/05 04:06:05;;;;;;;35.10;12.82;;;;;;;3.78;100.00;98906.88;5079331;28;20028;-81
2021/04/05 04:08:40;;;;;;;31.33;13.02;;;;;;;3.80;100.00;98909.44;5097808;28;20062;-81
2021/04/05 04:11:09;;;;;;;26.15;11.73;;;;;;;3.78;100.00;98904.31;5079232;28;20165;-82
2021/04/05 04:13:41;;;;;;;32.58;13.32;;;;;;;3.80;100.00;98899.19;5079291;28;20024;-82
2021/04/05 04:16:09;;;;;;;26.80;11.70;;;;;;;3.79;100.00;98905.19;5097473;28;20095;-82
2021/04/05 04:18:36;;;;;;;21.23;10.93;;;;;;;3.80;100.00;98894.06;5079652;28;20533;-82
2021/04/05 04:21:02;;;;;;;28.50;13.73;;;;;;;3.82;100.00;98893.16;5097939;28;20016;-82
2021/04/05 04:23:27;;;;;;;24.85;10.82;;;;;;;3.82;100.00;98912.81;5097601;28;20493;-82
2021/04/05 04:25:53;;;;;;;28.05;11.93;;;;;;;3.84;100.00;98911.06;5078311;28;20110;-82
2021/04/05 04:28:19;;;;;;;26.92;11.18;;;;;;;3.83;100.00;98927.34;5078958;28;20468;-82
2021/04/05 04:30:44;;;;;;;20.67;10.32;;;;;;;3.81;100.00;98958.13;5078610;28;20020;-82
2021/04/05 04:33:11;;;;;;;17.83;5.85;;;;;;;3.50;100.00;98950.06;5097504;28;20024;-81
2021/04/05 04:35:38;;;;;;;14.68;5.07;;;;;;;3.29;100.00;98948.69;5079706;28;20049;-81
2021/04/05 04:38:05;;;;;;;11.07;4.30;;;;;;;3.19;100.00;98963.34;5079221;28;20031;-82
2021/04/05 04:40:33;;;;;;;4.80;1.65;;;;;;;2.75;100.00;98966.50;5097270;28;20123;-81
2021/04/05 04:43:00;;;;;;;8.20;2.00;;;;;;;2.62;100.00;98959.84;5097094;28;20400;-81
2021/04/05 04:45:26;;;;;;;6.22;1.83;;;;;;;2.64;100.00;98966.63;5096725;28;20023;-81
2021/04/05 04:47:52;;;;;;;4.50;1.10;;;;;;;2.50;100.00;98961.66;5096643;28;20112;-81
2021/04/05 04:50:19;;;;;;;2.78;0.63;;;;;;;2.36;100.00;98968.63;5096675;28;20053;-81
2021/04/05 04:52:44;;;;;;;1.70;0.50;;;;;;;2.20;100.00;98955.16;5078814;28;20024;-81
2021/04/05 04:55:10;;;;;;;3.10;0.50;;;;;;;2.21;100.00;98976.47;5078309;28;20511;-81
2021/04/05 04:57:36;;;;;;;3.47;0.60;;;;;;;2.11;100.00;98960.38;5078407;28;20026;-81
2021/04/05 05:00:04;;;;;;;2.28;0.52;;;;;;;2.10;100.00;98958.69;5078604;28;20115;-81
2021/04/05 05:02:31;;;;;;;2.28;0.60;;;;;;;2.04;100.00;98961.31;5078869;28;20085;-81
2021/04/05 05:04:56;;;;;;;2.03;0.50;;;;;;;2.06;100.00;98967.25;5096780;28;20024;-81
2021/04/05 05:07:24;;;;;;;3.70;0.57;;;;;;;2.01;100.00;98953.66;5078591;28;20111;-81
2021/04/05 05:09:49;;;;;;;6.65;1.50;;;;;;;1.94;100.00;98955.44;5096402;28;20024;-81
2021/04/05 05:12:15;;;;;;;5.07;0.70;;;;;;;1.94;100.00;98952.88;5078483;28;20108;-81
2021/04/05 05:14:41;;;;;;;3.45;0.52;;;;;;;1.98;100.00;98962.22;5096347;28;20024;-81
2021/04/05 05:17:07;;;;;;;4.13;0.80;;;;;;;1.93;100.00;98958.84;5078048;28;20031;-81
2021/04/05 05:19:36;;;;;;;8.10;0.63;;;;;;;2.00;100.00;98965.63;5096311;28;20073;-81
2021/04/05 05:22:04;;;;;;;5.22;0.70;;;;;;;2.00;100.00;98957.06;5078346;28;20510;-81
2021/04/05 05:24:31;;;;;;;4.13;0.60;;;;;;;2.02;100.00;98956.19;5096804;28;20137;-81
2021/04/05 05:26:57;;;;;;;3.90;0.60;;;;;;;2.00;100.00;98959.63;5078201;28;20495;-81
2021/04/05 05:29:23;;;;;;;4.20;0.82;;;;;;;2.03;100.00;98960.47;5077855;28;20028;-81
2021/04/05 05:31:49;;;;;;;5.43;0.85;;;;;;;2.03;100.00;98964.72;5096362;28;20095;-81
2021/04/05 05:34:21;;;;;;;4.15;0.70;;;;;;;2.02;100.00;98963.03;5096914;28;20096;-81
2021/04/05 05:36:48;;;;;;;5.78;1.10;;;;;;;2.08;100.00;98961.25;5077577;28;20024;-81
2021/04/05 05:39:15;;;;;;;5.88;0.95;;;;;;;2.07;100.00;98958.72;5096048;28;20032;-81
2021/04/05 05:41:43;;;;;;;7.65;1.08;;;;;;;2.10;100.00;98963.81;5077646;28;20107;-81
2021/04/05 05:44:24;;;;;;;7.43;0.90;;;;;;;1.95;100.00;98962.25;5077517;28;20024;-81
2021/04/05 05:46:56;;;;;;;7.65;1.10;;;;;;;1.95;100.00;98959.69;5095889;28;20073;-81
2021/04/05 05:49:35;;;;;;;15.73;1.60;;;;;;;1.92;100.00;98966.53;5077620;28;20020;-81
2021/04/05 05:52:00;;;;;;;11.25;1.17;;;;;;;1.89;100.00;98969.97;5094695;28;20036;-81
2021/04/05 05:54:33;;;;;;;6.80;1.20;;;;;;;1.83;100.00;98981.09;5078036;28;20032;-81
2021/04/05 05:57:18;;;;;;;10.52;1.27;;;;;;;1.77;100.00;98986.25;5094916;28;20829;-81
2021/04/05 06:00:03;;;;;;;12.90;1.52;;;;;;;1.81;100.00;98998.13;5095728;28;20048;-81
2021/04/05 06:02:48;;;;;;;11.27;1.23;;;;;;;1.71;100.00;98996.50;5077716;28;20024;-81
2021/04/05 06:05:48;;;;;;;13.63;1.55;;;;;;;1.54;100.00;98989.00;5077429;28;20043;-81
2021/04/05 06:08:27;;;;;;;7.35;1.10;;;;;;;1.48;100.00;99008.59;5096224;28;20029;-81
2021/04/05 06:11:22;;;;;;;8.65;1.50;;;;;;;1.37;100.00;98999.31;5095881;28;20507;-81
2021/04/05 06:14:08;;;;;;;9.30;1.42;;;;;;;1.23;100.00;98995.13;5095302;28;20035;-81
2021/04/05 06:16:33;;;;;;;6.68;1.27;;;;;;;1.18;100.00;98997.72;5077879;28;20123;-81
2021/04/05 06:18:58;;;;;;;9.18;1.48;;;;;;;1.22;100.00;99003.66;5096189;28;20467;-81
2021/04/05 06:21:49;;;;;;;8.93;1.30;;;;;;;1.18;100.00;99007.94;5096346;28;20034;-81
2021/04/05 06:24:39;;;;;;;12.27;1.75;;;;;;;1.15;100.00;98998.59;5094577;28;20258;-82
2021/04/05 06:27:33;;;;;;;9.40;1.38;;;;;;;1.13;100.00;98994.34;5095543;28;20066;-81
2021/04/05 06:30:17;;;;;;;7.30;1.23;;;;;;;1.14;100.00;99002.00;5095924;28;20070;-80
2021/04/05 06:32:53;;;;;;;8.13;1.20;;;;;;;1.12;100.00;99003.72;5095731;28;20028;-81
2021/04/05 06:35:48;;;;;;;7.70;1.00;;;;;;;1.19;100.00;99001.13;5096790;28;20028;-81
2021/04/05 06:38:37;;;;;;;10.13;1.25;;;;;;;1.21;100.00;99012.19;5096481;28;20027;-81
2021/04/05 06:41:27;;;;;;;8.75;1.42;;;;;;;1.29;100.00;99010.41;5079327;28;20114;-83
2021/04/05 06:44:11;;;;;;;6.63;1.00;;;;;;;1.28;100.00;99011.28;5096886;28;20025;-81
2021/04/05 06:47:11;;;;;;;9.35;1.25;;;;;;;1.19;100.00;99013.88;5098102;28;20109;-83
2021/04/05 06:50:01;;;;;;;11.85;1.58;;;;;;;1.00;100.00;99013.13;5096510;28;20094;-84
2021/04/05 06:52:29;;;;;;;9.75;1.17;;;;;;;0.96;100.00;99002.09;5094298;28;20028;-85
2021/04/05 06:55:16;;;;;;;6.97;1.15;;;;;;;0.97;100.00;99011.44;5076772;28;20020;-84
2021/04/05 06:58:06;;;;;;;11.57;1.63;;;;;;;0.96;100.00;99021.69;5096922;28;20375;-82
2021/04/05 07:00:53;;;;;;;9.68;1.60;;;;;;;1.01;100.00;99035.25;5095720;28;20035;-83
2021/04/05 07:03:45;;;;;;;6.22;1.30;;;;;;;1.15;100.00;99026.69;5098317;28;20391;-82
2021/04/05 07:06:48;;;;;;;10.07;1.27;;;;;;;1.10;100.00;99028.38;5096279;28;20028;-82
2021/04/05 07:09:31;;;;;;;10.85;1.83;;;;;;;1.18;100.00;99030.09;5096818;28;20024;-82
2021/04/05 07:12:16;;;;;;;10.18;1.60;;;;;;;1.22;100.00;99022.38;5098398;28;20115;-82
2021/04/05 07:15:04;;;;;;;8.63;1.23;;;;;;;1.24;100.00;99023.22;5097247;28;20062;-83
2021/04/05 07:17:44;;;;;;;8.80;1.40;;;;;;;1.44;100.00;99019.69;5096656;28;20452;-82
2021/04/05 07:20:25;;;;;;;7.80;1.17;;;;;;;1.49;100.00;99011.16;5096893;28;20031;-83
2021/04/05 07:23:14;;;;;;;13.05;1.80;;;;;;;1.48;100.00;99017.13;5097383;28;20024;-83
2021/04/05 07:25:51;;;;;;;11.30;1.23;;;;;;;1.53;100.00;99012.81;5079574;28;20024;-83
2021/04/05 07:29:01;;;;;;;7.93;1.50;;;;;;;1.36;100.00;99025.72;5097421;28;20039;-84
2021/04/05 07:31:36;;;;;;;6.22;1.50;;;;;;;1.49;100.00;99029.03;5074328;28;20036;-84
2021/04/05 07:34:20;;;;;;;14.20;1.40;;;;;;;1.64;98.16;99009.38;5094158;28;20024;-84
2021/04/05 07:39:44;;;;;;;12.00;1.33;;;;;;;1.99;97.73;99012.47;5072876;28;20052;-85
2021/04/05 07:46:19;;;;;;;10.35;1.52;;;;;;;2.29;95.42;99016.47;5052235;28;19959;-84
2021/04/05 07:49:05;;;;;;;10.43;1.60;;;;;;;1.90;93.87;99021.94;5040734;28;20048;-84
2021/04/05 07:51:53;;;;;;;10.32;1.02;;;;;;;1.44;92.55;99030.75;5053029;28;20025;-84
2021/04/05 07:54:22;;;;;;;7.63;1.23;;;;;;;1.09;97.11;99056.50;5053852;28;20047;-85
2021/04/05 07:56:50;;;;;;;8.38;1.10;;;;;;;0.65;97.63;99049.84;5052781;28;20055;-84
2021/04/05 07:59:47;;;;;;;10.07;1.25;;;;;;;0.73;100.00;99060.88;5054404;28;20484;-83
2021/04/05 08:02:25;;;;;;;10.15;1.27;;;;;;;0.86;99.07;99028.50;5060094;28;20492;-83
2021/04/05 08:05:24;;;;;;;8.60;1.20;;;;;;;0.95;97.69;99033.56;5078037;28;20033;-83
2021/04/05 08:07:52;;;;;;;12.50;1.38;;;;;;;1.32;95.13;99038.50;5062875;28;20500;-82
2021/04/05 08:10:39;;;;;;;7.85;1.40;;;;;;;2.89;90.17;99035.44;5061427;28;20540;-83
2021/04/05 08:13:17;;;;;;;10.88;1.25;;;;;;;3.78;83.88;99031.69;5061735;28;20079;-83
2021/04/05 08:15:56;;;;;;;9.25;1.83;;;;;;;4.15;84.01;99025.09;5078382;28;20029;-83
2021/04/05 08:18:57;;;;;;;8.18;1.20;;;;;;;3.52;83.42;99021.84;5061660;28;20013;-83
2021/04/05 08:21:30;;;;;;;6.25;1.55;;;;;;;2.98;87.37;99038.75;5003390;28;20101;-83
2021/04/05 08:24:16;;;;;;;6.95;1.33;;;;;;;2.40;89.06;99049.63;5050575;28;20033;-84
2021/04/05 08:26:47;;;;;;;8.05;1.63;;;;;;;1.47;93.48;99061.41;5060712;28;20032;-83
2021/04/05 08:29:12;;;;;;;8.30;1.10;;;;;;;1.45;89.64;99070.81;5058596;28;20021;-84
2021/04/05 08:31:53;;;;;;;2.90;0.70;;;;;;;1.40;89.48;99061.47;5059003;28;20071;-84
2021/04/05 08:34:29;;;;;;;2.70;0.68;;;;;;;1.23;90.30;99056.41;5059486;28;20276;-84
2021/04/05 08:37:16;;;;;;;2.45;0.68;;;;;;;1.31;91.71;99065.75;5059731;28;20013;-83
2021/04/05 08:39:59;;;;;;;2.00;0.57;;;;;;;1.18;92.10;99073.50;5061361;28;20021;-83
2021/04/05 08:42:43;;;;;;;1.25;0.17;;;;;;;0.99;92.30;99088.88;5060661;28;20024;-83
2021/04/05 08:45:43;;;;;;;2.70;0.40;;;;;;;0.49;97.33;99104.28;5061230;28;20033;-83
2021/04/05 08:48:20;;;;;;;2.92;0.50;;;;;;;0.30;100.00;99116.19;5057068;28;20385;-83
2021/04/05 08:50:51;;;;;;;5.90;2.10;;;;;;;0.36;100.00;99132.34;5057918;28;20047;-86
2021/04/05 08:53:18;;;;;;;2.65;0.73;;;;;;;0.17;100.00;99135.75;5055401;28;20024;-86
2021/04/05 08:55:44;;;;;;;4.55;0.80;;;;;;;0.15;100.00;99133.19;5071843;28;20025;-87
2021/04/05 08:58:39;;;;;;;2.28;0.63;;;;;;;0.21;100.00;99158.69;5071762;28;20066;-86
2021/04/05 09:01:11;;;;;;;3.47;0.50;;;;;;;-0.12;100.00;99172.25;5055947;28;20094;-85
2021/04/05 09:03:37;;;;;;;2.78;0.70;;;;;;;-0.24;100.00;99170.50;5055715;28;20394;-85
2021/04/05 09:06:11;;;;;;;2.40;0.77;;;;;;;-0.37;97.87;99199.34;5056330;28;20025;-85
2021/04/05 09:08:36;;;;;;;8.67;1.00;;;;;;;-0.04;94.33;99208.78;5056345;28;20071;-85
2021/04/05 09:11:05;;;;;;;7.60;1.40;;;;;;;0.59;92.33;99203.78;5055629;28;20416;-85
2021/04/05 09:13:49;;;;;;;7.00;1.23;;;;;;;0.44;88.19;99196.13;5060604;28;20021;-84
2021/04/05 09:16:24;;;;;;;12.00;1.50;;;;;;;0.92;86.85;99194.38;5063130;28;20063;-84
2021/04/05 09:19:26;;;;;;;8.63;1.13;;;;;;;0.75;85.81;99188.47;5060791;28;20020;-83
2021/04/05 09:22:22;;;;;;;6.05;1.10;;;;;;;0.76;83.54;99193.56;5062617;28;20477;-83
2021/04/05 09:24:57;;;;;;;10.27;1.40;;;;;;;1.17;85.18;99189.22;5061047;28;20039;-84
2021/04/05 09:27:28;;;;;;;;;;;;;;;1.05;83.37;99185.88;5060785;28;20116;-84
2021/04/05 09:30:29;;;;;;;6.95;1.67;;;;;;;0.91;82.65;99188.44;5076228;28;19908;-83
2021/04/05 09:33:07;;;;;;;10.93;1.52;;;;;;;1.35;82.75;99190.03;5059144;28;20105;-84
2021/04/05 09:36:09;;;;;;;12.45;1.73;;;;;;;1.70;82.45;99203.56;5058497;28;20025;-83
2021/04/05 09:38:53;;;;;;;10.95;1.27;;;;;;;1.16;84.30;99198.59;5057265;28;20078;-85
2021/04/05 09:41:43;;;;;;;5.60;0.98;;;;;;;1.35;83.48;99191.72;5060297;28;20408;-83
2021/04/05 09:44:26;;;;;;;13.63;1.63;;;;;;;2.29;80.49;99192.13;5058675;28;20031;-84
2021/04/05 09:47:29;;;;;;;9.77;1.52;;;;;;;2.80;78.33;99187.44;5057101;28;20090;-85
2021/04/05 09:50:19;;;;;;;11.25;1.58;;;;;;;3.26;76.53;99181.88;5056133;28;20025;-84
2021/04/05 09:53:07;;;;;;;11.77;1.70;;;;;;;3.47;73.85;99184.19;5054646;28;20400;-84
2021/04/05 09:55:45;;;;;;;12.95;1.75;;;;;;;3.81;72.06;99178.66;5054913;28;20025;-85
2021/04/05 09:58:33;;;;;;;8.27;1.70;;;;;;;3.55;73.00;99153.38;5053249;28;20021;-85
2021/04/05 10:01:04;;;;;;;13.65;1.83;;;;;;;2.67;74.62;99157.72;5054519;28;20068;-85
2021/04/05 10:03:37;;;;;;;12.32;2.22;;;;;;;1.90;77.39;99183.84;5053155;28;20032;-85
2021/04/05 10:06:04;;;;;;;12.02;1.73;;;;;;;1.34;81.86;99213.03;5054039;28;20049;-85
2021/04/05 10:08:31;;;;;;;6.28;1.30;;;;;;;1.12;71.05;99195.22;5053138;28;20396;-85
2021/04/05 10:10:57;;;;;;;5.70;1.55;;;;;;;1.09;66.71;99185.00;5054640;28;20086;-85
2021/04/05 10:13:24;;;;;;;8.27;1.20;;;;;;;1.35;63.60;99181.50;5053543;28;20095;-85
2021/04/05 10:15:51;;;;;;;12.07;2.03;;;;;;;2.27;65.41;99189.56;5053381;28;20086;-85
2021/04/05 10:18:17;;;;;;;7.72;1.27;;;;;;;2.57;59.31;99185.09;5054138;28;20028;-85
2021/04/05 10:20:47;;;;;;;7.35;1.00;;;;;;;2.63;53.75;99182.50;5057405;28;20084;-84
2021/04/05 10:23:17;;;;;;;8.52;1.30;;;;;;;3.12;54.75;99176.06;5056265;28;20021;-84
2021/04/05 10:25:43;;;;;;;7.43;1.40;;;;;;;3.68;57.28;99167.72;5053802;28;20032;-85
2021/04/05 10:28:14;;;;;;;9.15;1.17;;;;;;;2.93;56.12;99193.34;5055671;28;20060;-84
2021/04/05 10:30:39;;;;;;;6.57;1.33;;;;;;;2.58;54.86;99175.72;5057753;28;20112;-84
2021/04/05 10:33:16;;;;;;;9.90;1.63;;;;;;;2.27;54.03;99181.91;5057921;28;20426;-84
2021/04/05 10:35:46;;;;;;;5.47;0.90;;;;;;;2.68;55.25;99196.09;5056839;28;20027;-84
2021/04/05 10:38:15;;;;;;;8.82;1.30;;;;;;;2.19;54.21;99203.28;5100825;22;20045;-77
2021/04/05 10:40:40;;;;;;;13.73;1.45;;;;;;;2.44;54.84;99197.16;5073108;28;20020;-78
2021/04/05 10:43:33;;;;;;;6.57;1.17;;;;;;;1.89;54.21;99197.47;5073197;28;20028;-77
2021/04/05 10:46:01;;;;;;;8.48;2.47;;;;;;;1.98;55.15;99189.78;5088774;28;20085;-77
2021/04/05 10:48:41;;;;;;;6.28;1.20;;;;;;;2.47;51.86;99197.13;5072996;28;20027;-77
2021/04/05 10:51:15;;;;;;;8.68;1.40;;;;;;;3.00;51.40;99206.06;5073032;28;20031;-77
2021/04/05 10:53:42;;;;;;;9.00;1.30;;;;;;;2.53;51.36;99189.41;5073035;28;20082;-78
2021/04/05 10:56:09;;;;;;;12.70;2.08;;;;;;;2.15;52.96;99212.66;5088539;28;20082;-78
2021/04/05 10:58:44;;;;;;;10.73;2.00;;;;;;;1.56;56.81;99198.47;5072889;28;20021;-77
2021/04/05 11:01:11;;;;;;;15.25;1.58;;;;;;;1.62;60.13;99221.44;5072982;28;20546;-77
2021/04/05 11:03:41;;;;;;;11.68;2.00;;;;;;;2.64;56.63;99211.50;5072832;28;20036;-77
2021/04/05 11:06:09;;;;;;;10.18;1.50;;;;;;;3.92;53.03;99210.16;5071889;28;20032;-77
2021/04/05 11:08:36;;;;;;;11.88;1.80;;;;;;;5.34;49.65;99210.47;5088320;28;20107;-78
2021/04/05 11:11:14;;;;;;;8.02;1.20;;;;;;;4.71;45.65;99204.72;5072000;28;20025;-78
2021/04/05 11:13:43;;;;;;;5.13;1.30;;;;;;;4.46;43.82;99213.66;5071797;28;20035;-77
2021/04/05 11:16:12;;;;;;;9.48;1.10;;;;;;;4.52;44.38;99228.97;5072874;28;20028;-77
2021/04/05 11:18:49;;;;;;;5.60;0.85;;;;;;;4.92;42.79;99203.50;5072876;28;20039;-78
2021/04/05 11:21:21;;;;;;;6.57;1.52;;;;;;;4.50;42.26;99211.06;5088825;28;20024;-78
2021/04/05 11:23:57;;;;;;;8.32;2.15;;;;;;;5.77;41.53;99203.63;5088634;28;20114;-77
2021/04/05 11:26:28;;;;;;;11.32;2.17;;;;;;;5.76;40.50;99209.66;5089227;28;20023;-77
2021/04/05 11:28:58;;;;;;;6.22;1.00;;;;;;;4.09;42.79;99196.25;5073329;28;20051;-78
2021/04/05 11:31:25;;;;;;;7.05;1.42;;;;;;;4.61;43.38;99216.00;5089282;28;20031;-78
2021/04/05 11:33:58;;;;;;;7.93;1.45;;;;;;;3.67;45.80;99226.72;5089391;28;20021;-78
2021/04/05 11:36:31;;;;;;;12.35;1.90;;;;;;;4.00;46.91;99222.00;5091567;28;20021;-78
2021/04/05 11:38:59;;;;;;;6.88;1.38;;;;;;;4.60;49.22;99235.69;5075518;28;20064;-78
2021/04/05 11:41:28;;;;;;;8.73;1.52;;;;;;;2.64;54.25;99231.97;5075395;28;20575;-78
2021/04/05 11:43:57;;;;;;;9.80;1.80;;;;;;;3.83;51.87;99251.31;5076235;28;20029;-77
2021/04/05 11:46:27;;;;;;;14.07;1.67;;;;;;;4.48;49.92;99247.88;5075856;28;20049;-77
2021/04/05 11:49:06;;;;;;;12.38;1.88;;;;;;;5.72;47.65;99262.00;5095019;28;20025;-77
2021/04/05 11:51:45;;;;;;;4.78;1.00;;;;;;;4.63;48.81;99252.78;5076605;28;20108;-77
2021/04/05 11:54:23;;;;;;;10.45;1.35;;;;;;;4.89;48.41;99249.78;5077567;28;20104;-78
2021/04/05 11:56:50;;;;;;;6.00;1.35;;;;;;;5.84;47.92;99268.66;5078529;28;20032;-78
2021/04/05 11:59:21;;;;;;;9.57;1.15;;;;;;;3.85;51.89;99274.38;5092245;28;20059;-77
2021/04/05 12:01:54;;;;;;;7.10;1.13;;;;;;;3.36;55.04;99280.88;5093891;28;20134;-78
2021/04/05 12:04:30;;;;;;;9.45;1.30;;;;;;;2.93;55.10;99258.19;5092568;28;20380;-77
2021/04/05 12:07:13;;;;;;;8.98;1.35;;;;;;;3.07;57.00;99276.00;5091957;28;20033;-78
2021/04/05 12:10:04;;;;;;;10.15;1.13;;;;;;;5.44;52.58;99268.56;5074935;28;20032;-77
2021/04/05 12:12:36;;;;;;;8.30;1.25;;;;;;;4.99;52.38;99253.09;5091713;28;20020;-77